Chambersburg, Indiana
Current Conditions -  °F | °C
As of 11:35 AM on Tuesday 21 Oct 2014 (Local Time) from KHNB Reporting Station
Clear Clear  
Wind Chill: 59°   Ceiling: Unl
Heat Index: 59°   Visibility: 10mi
Dew Point: 46°   Wind: 10mph
Humidity: 63%   Direction: 20°NNE
Pressure: 30.1"   Gusts: 16mph
Location:  38.5454°N, 86.4243°W
Report Text: KHNB 211535Z AUTO 02009G14KT 10SM CLR 15/08 A3010 RMK AO1
Loading
Personal Weather Stations






























Interactive Weather Map
Tropical Storm Tracking
New forecast layout! Learn more

10-Day Weather Forecast

Advertisements
Track Severe Weather on mobile